Tropical Cyclones
[Index]
Season 2020-2021 Tropical Cyclone KIMI Track Map
Season 2020-2021 Summaries (Operational Data): [AU] [SIO] [SPAC] [SH]
<<- Previous TC | 2020-2021 Season | Next TC ->>

click for intensity scale information  Lat/long Grid: Show Hide

 Date Labels: Show Hide

Operational Tropical Cyclone Data

Name: KIMI
Number: 2111

15 Jan 2021 00:00 UTC to 19 Jan 2021 18:00 UTC

    date/time    lat    long     hPa   cat  kts
2021-01-15 00   13.3   145.6    1010         15          
2021-01-15 06   13.4   145.9    1010         15          
2021-01-15 12   13.7   146.1    1010         15          
2021-01-15 18   14.0   146.3    1010         15          
2021-01-16 00   14.2   146.4    1003         20          
2021-01-16 06   14.4   146.5    1001         20          
2021-01-16 12   14.6   146.5     999         25          
2021-01-16 18   14.8   146.4     996         30          
2021-01-17 00   15.1   146.4     996    1    40          
2021-01-17 06   15.4   146.5     996    1    40          
2021-01-17 12   15.8   146.5     994    1    45          
2021-01-17 18   16.3   146.6     990    2    50          
2021-01-18 00   17.1   146.7     993    2    50          
2021-01-18 06   17.8   147.1     994    1    45          
2021-01-18 09   18.1   147.4     999    1    35          
2021-01-18 12   17.8   147.5    1001         30          
2021-01-18 18   17.9   147.4    1001         30          
2021-01-19 00   18.2   147.3    1007         25          
2021-01-19 06   17.8   146.9    1004         20          
2021-01-19 12   17.4   146.6    1007         20          
2021-01-19 18   17.1   146.3    1006         20          
Winds were reported as (or converted to) 10-min average.

Tropical cyclone tracks developed by Michael Bath using operational warnings and advisories and Google Maps.


Document: tropical_cyclone_kimi.htm
Updated: 7 May 2021
[Australian Severe Weather index] [Copyright Notice] [Email Contacts] [Search This Site] [Privacy Policy]


Main Index Home Page Stock Weather Photos Extreme Storms Discussion Storm News and Storm Chasing Reports Tropical Cyclones / Hurricanes / Typhoons Weather Data and Links Wild Fires / Bushfires Weather Observation Techniques Weather Picture Catalogue Tornado Pictures and Reports Stock Video Footage and DVDs for sale